Time;durP1;ratioP1;P1;durP2;ratioP2;P2;SDS_P1;SDS_P2;PMS_P1;PMS_P2;Temp;Humidity;BMP_temperature;BMP_pressure;BME280_temperature;BME280_humidity;BME280_pressure;Samples;Min_cycle;Max_cycle;Signal;HPM_P1;HPM_P2
2023/01/25 00:00:42;;;;;;;8.45;5.30;;;0.60;99.90;;;;;;5017915;28;20390;-76
2023/01/25 00:03:08;;;;;;;8.00;5.88;;;0.70;99.90;;;;;;4994345;28;20051;-79
2023/01/25 00:05:34;;;;;;;7.60;5.53;;;0.70;99.90;;;;;;5007251;28;20034;-79
2023/01/25 00:08:00;;;;;;;8.57;5.95;;;0.70;99.90;;;;;;5019694;28;20026;-79
2023/01/25 00:10:25;;;;;;;9.00;6.50;;;0.70;99.90;;;;;;5017564;28;20033;-79
2023/01/25 00:12:51;;;;;;;9.80;6.78;;;0.70;99.90;;;;;;5005551;28;20113;-79
2023/01/25 00:15:17;;;;;;;15.15;11.27;;;0.70;99.90;;;;;;5003650;28;20029;-79
2023/01/25 00:17:42;;;;;;;12.40;9.05;;;0.50;99.90;;;;;;4989157;28;20450;-78
2023/01/25 00:20:09;;;;;;;10.73;7.63;;;0.60;99.90;;;;;;4994016;28;20542;-79
2023/01/25 00:22:34;;;;;;;9.50;7.32;;;0.60;99.90;;;;;;5017766;28;20028;-79
2023/01/25 00:25:00;;;;;;;9.57;6.93;;;0.70;99.90;;;;;;5019812;28;20038;-79
2023/01/25 00:27:26;;;;;;;8.32;6.18;;;0.60;99.90;;;;;;5003758;28;20336;-79
2023/01/25 00:29:53;;;;;;;9.88;6.40;;;0.60;99.90;;;;;;5008117;28;20041;-78
2023/01/25 00:32:18;;;;;;;8.68;5.53;;;0.60;99.90;;;;;;5001728;28;20113;-79
2023/01/25 00:34:44;;;;;;;8.25;5.95;;;0.60;99.90;;;;;;5017943;28;20084;-79
2023/01/25 00:37:20;;;;;;;7.60;5.88;;;0.50;99.90;;;;;;5016318;28;20036;-79
2023/01/25 00:39:46;;;;;;;8.68;5.80;;;0.50;99.90;;;;;;5007293;28;20033;-79
2023/01/25 00:42:13;;;;;;;10.85;6.97;;;0.50;99.90;;;;;;4993452;28;20091;-78
2023/01/25 00:44:39;;;;;;;10.38;6.80;;;0.50;99.90;;;;;;5002459;28;20029;-79
2023/01/25 00:47:09;;;;;;;9.60;6.53;;;0.50;99.90;;;;;;5018751;28;20030;-79
2023/01/25 00:49:34;;;;;;;8.85;6.18;;;0.50;99.90;;;;;;4999217;28;20061;-78
2023/01/25 00:52:00;;;;;;;7.95;5.70;;;0.50;99.90;;;;;;5006279;28;20500;-76
2023/01/25 00:54:26;;;;;;;9.85;6.60;;;0.40;99.90;;;;;;5010096;28;20029;-77
2023/01/25 00:56:52;;;;;;;10.50;6.57;;;0.40;99.90;;;;;;4999125;28;20060;-77
2023/01/25 00:59:19;;;;;;;9.38;6.90;;;0.40;99.90;;;;;;5016432;28;20036;-76
2023/01/25 01:01:45;;;;;;;9.82;6.75;;;0.50;99.90;;;;;;5016282;28;20518;-79
2023/01/25 01:04:10;;;;;;;8.32;5.45;;;0.40;99.90;;;;;;5002913;28;20125;-79
2023/01/25 01:06:40;;;;;;;7.47;5.20;;;0.50;99.90;;;;;;5015528;28;20513;-79
2023/01/25 01:09:09;;;;;;;9.88;6.70;;;0.40;99.90;;;;;;4986596;28;20376;-79
2023/01/25 01:11:35;;;;;;;8.85;5.88;;;0.40;99.90;;;;;;5003176;28;20057;-79
2023/01/25 01:14:01;;;;;;;9.15;6.43;;;0.40;99.90;;;;;;5005395;28;20072;-79
2023/01/25 01:16:27;;;;;;;10.82;6.68;;;0.30;99.90;;;;;;4991920;28;20057;-79
2023/01/25 01:18:53;;;;;;;9.18;6.65;;;0.30;99.90;;;;;;4999578;28;20521;-79
2023/01/25 01:21:19;;;;;;;7.35;5.10;;;0.40;99.90;;;;;;5009535;28;20021;-79
2023/01/25 01:23:45;;;;;;;9.05;5.70;;;0.40;99.90;;;;;;4992717;28;20127;-79
2023/01/25 01:26:13;;;;;;;8.45;6.13;;;0.40;99.90;;;;;;5014383;28;20069;-78
2023/01/25 01:28:39;;;;;;;8.27;5.55;;;0.40;99.90;;;;;;5005316;28;20037;-79
2023/01/25 01:31:11;;;;;;;8.23;5.25;;;0.40;99.90;;;;;;5008379;28;20057;-79
2023/01/25 01:33:41;;;;;;;7.82;5.60;;;0.30;99.90;;;;;;4999357;28;20038;-79
2023/01/25 01:36:14;;;;;;;9.23;6.28;;;0.30;99.90;;;;;;5002625;28;20029;-79
2023/01/25 01:38:41;;;;;;;10.57;6.65;;;0.30;99.90;;;;;;5008861;28;20071;-79
2023/01/25 01:41:07;;;;;;;10.18;6.68;;;0.20;99.90;;;;;;5004127;28;20482;-78
2023/01/25 01:43:33;;;;;;;9.43;6.38;;;0.20;99.90;;;;;;4985034;28;20053;-79
2023/01/25 01:46:02;;;;;;;7.82;5.82;;;0.30;99.90;;;;;;5001311;28;20916;-79
2023/01/25 01:48:42;;;;;;;9.73;6.38;;;0.30;99.90;;;;;;5001247;28;20049;-79
2023/01/25 01:51:29;;;;;;;10.75;6.95;;;0.30;99.90;;;;;;5009078;28;20044;-79
2023/01/25 01:54:00;;;;;;;9.40;6.15;;;0.30;99.90;;;;;;5003836;28;20026;-78
2023/01/25 01:56:38;;;;;;;8.25;5.45;;;0.30;99.90;;;;;;5007760;28;20026;-79
2023/01/25 01:59:04;;;;;;;9.48;6.05;;;0.30;99.90;;;;;;4987673;28;20037;-79
2023/01/25 02:01:31;;;;;;;11.02;6.80;;;0.30;99.90;;;;;;4999452;28;20034;-79
2023/01/25 02:03:58;;;;;;;11.60;7.50;;;0.30;99.90;;;;;;4998791;28;20032;-77
2023/01/25 02:06:33;;;;;;;13.95;8.85;;;0.20;99.90;;;;;;5001287;28;20057;-77
2023/01/25 02:09:00;;;;;;;10.07;6.97;;;0.20;99.90;;;;;;5001357;28;20037;-77
2023/01/25 02:11:27;;;;;;;12.75;8.43;;;0.30;99.90;;;;;;4986106;28;20064;-77
2023/01/25 02:13:56;;;;;;;10.52;7.60;;;0.20;99.90;;;;;;5017982;28;20029;-77
2023/01/25 02:16:25;;;;;;;10.88;7.03;;;0.20;99.90;;;;;;4990305;28;20026;-77
2023/01/25 02:18:53;;;;;;;9.77;6.28;;;0.30;99.90;;;;;;5016219;28;20076;-77
2023/01/25 02:21:19;;;;;;;8.05;6.03;;;0.30;99.90;;;;;;4998887;28;20022;-77
2023/01/25 02:24:08;;;;;;;9.73;5.97;;;0.30;99.90;;;;;;5016675;28;20041;-77
2023/01/25 02:26:38;;;;;;;11.73;6.95;;;0.20;99.90;;;;;;5017440;28;20022;-79
2023/01/25 02:29:06;;;;;;;9.68;6.28;;;0.20;99.90;;;;;;5003321;28;20036;-76
2023/01/25 02:31:32;;;;;;;10.10;6.63;;;0.30;99.90;;;;;;5003628;28;20028;-76
2023/01/25 02:33:59;;;;;;;9.85;6.30;;;0.20;99.90;;;;;;4990792;28;20021;-77
2023/01/25 02:36:33;;;;;;;11.85;8.13;;;0.30;99.90;;;;;;5015086;28;20525;-77
2023/01/25 02:39:29;;;;;;;9.43;6.30;;;0.20;99.90;;;;;;4989965;28;21015;-77
2023/01/25 02:41:54;;;;;;;10.35;6.95;;;0.20;99.90;;;;;;4988835;28;20124;-79
2023/01/25 02:44:27;;;;;;;9.93;6.32;;;0.20;99.90;;;;;;5013296;28;20030;-79
2023/01/25 02:46:53;;;;;;;10.93;7.18;;;0.20;99.90;;;;;;5002424;28;20057;-79
2023/01/25 02:49:19;;;;;;;10.60;6.57;;;0.20;99.90;;;;;;5001564;28;20088;-79
2023/01/25 02:51:49;;;;;;;11.43;7.05;;;0.20;99.90;;;;;;4985684;28;20049;-78
2023/01/25 02:54:17;;;;;;;10.52;7.45;;;0.20;99.90;;;;;;5001708;28;20030;-77
2023/01/25 02:56:43;;;;;;;9.90;6.85;;;0.10;99.90;;;;;;4984605;28;20022;-76
2023/01/25 02:59:12;;;;;;;11.32;6.55;;;0.20;99.90;;;;;;4985047;28;20041;-77
2023/01/25 03:01:40;;;;;;;12.00;7.90;;;0.20;99.90;;;;;;4984867;28;20018;-77
2023/01/25 03:04:06;;;;;;;9.98;6.40;;;0.10;99.90;;;;;;4999917;28;20470;-77
2023/01/25 03:06:33;;;;;;;9.35;6.65;;;0.10;99.90;;;;;;4987847;28;20625;-77
2023/01/25 03:08:59;;;;;;;10.05;6.75;;;0.10;99.90;;;;;;5014458;28;20034;-77
2023/01/25 03:11:25;;;;;;;10.32;6.47;;;0.20;99.90;;;;;;5008810;28;20030;-77
2023/01/25 03:13:51;;;;;;;14.10;8.75;;;0.00;99.90;;;;;;4990009;28;20026;-77
2023/01/25 03:16:17;;;;;;;12.57;8.93;;;0.00;99.90;;;;;;5017212;28;20176;-76
2023/01/25 03:18:44;;;;;;;12.88;8.30;;;0.00;99.90;;;;;;4993623;28;20384;-77
2023/01/25 03:21:14;;;;;;;11.73;7.70;;;0.00;99.90;;;;;;4991781;28;20030;-77
2023/01/25 03:23:41;;;;;;;15.27;9.70;;;0.00;99.90;;;;;;5000210;28;20036;-77
2023/01/25 03:26:11;;;;;;;12.70;9.23;;;-0.10;99.90;;;;;;4992239;28;20038;-77
2023/01/25 03:28:45;;;;;;;15.07;9.30;;;-0.10;99.90;;;;;;5002253;28;20030;-77
2023/01/25 03:31:13;;;;;;;15.02;9.70;;;0.00;99.90;;;;;;5013934;28;20096;-77
2023/01/25 03:33:39;;;;;;;14.93;9.43;;;0.00;99.90;;;;;;4997244;28;20030;-77
2023/01/25 03:36:07;;;;;;;13.63;8.30;;;0.00;99.90;;;;;;5007973;28;20084;-77
2023/01/25 03:38:33;;;;;;;10.60;6.85;;;0.00;99.90;;;;;;5003195;28;20033;-77
2023/01/25 03:40:59;;;;;;;13.25;8.65;;;0.00;99.90;;;;;;5009650;28;20029;-77
2023/01/25 03:43:26;;;;;;;13.48;8.55;;;0.10;99.90;;;;;;5003500;28;20064;-77
2023/01/25 03:45:56;;;;;;;12.75;8.70;;;0.10;99.90;;;;;;5006701;28;20489;-76
2023/01/25 03:48:24;;;;;;;12.60;8.15;;;0.10;99.90;;;;;;5010045;28;20056;-77
2023/01/25 03:50:57;;;;;;;13.07;8.45;;;0.10;99.90;;;;;;4992853;28;20084;-77
2023/01/25 03:53:29;;;;;;;11.00;7.25;;;0.10;99.90;;;;;;5006441;28;20571;-77
2023/01/25 03:56:07;;;;;;;12.73;8.13;;;0.20;99.90;;;;;;5010876;28;20684;-77
2023/01/25 03:58:34;;;;;;;11.77;7.60;;;0.10;99.90;;;;;;5004933;28;20109;-77
2023/01/25 04:01:01;;;;;;;12.27;7.65;;;0.10;99.90;;;;;;4999891;28;20125;-77
2023/01/25 04:03:28;;;;;;;13.55;8.75;;;0.10;99.90;;;;;;5001552;28;20025;-76
2023/01/25 04:05:55;;;;;;;12.80;8.48;;;0.00;99.90;;;;;;5000909;28;20037;-77
2023/01/25 04:08:21;;;;;;;11.75;8.35;;;0.00;99.90;;;;;;4991182;28;20429;-77
2023/01/25 04:10:52;;;;;;;15.30;9.77;;;0.00;99.90;;;;;;4993834;28;20040;-77
2023/01/25 04:13:20;;;;;;;13.15;8.38;;;0.10;99.90;;;;;;4990156;28;20039;-76
2023/01/25 04:15:46;;;;;;;15.93;10.23;;;0.10;99.90;;;;;;4992906;28;20391;-76
2023/01/25 04:18:22;;;;;;;11.60;7.55;;;0.00;99.90;;;;;;4993923;28;20073;-77
2023/01/25 04:20:52;;;;;;;12.30;7.70;;;0.00;99.90;;;;;;4992794;28;20064;-77
2023/01/25 04:23:19;;;;;;;15.52;9.63;;;-0.10;99.90;;;;;;5006183;28;20030;-76
2023/01/25 04:25:55;;;;;;;12.15;7.43;;;-0.10;99.90;;;;;;5003631;28;20025;-77
2023/01/25 04:28:22;;;;;;;12.20;7.22;;;-0.10;99.90;;;;;;5016604;28;20021;-79
2023/01/25 04:30:48;;;;;;;14.07;8.70;;;0.00;99.90;;;;;;4993522;28;20068;-79
2023/01/25 04:33:14;;;;;;;16.85;10.73;;;-0.20;99.90;;;;;;5010003;28;20116;-79
2023/01/25 04:35:42;;;;;;;19.73;11.35;;;-0.30;99.90;;;;;;5000376;28;20021;-79
2023/01/25 04:38:09;;;;;;;15.88;10.60;;;-0.30;99.90;;;;;;5004344;28;20037;-78
2023/01/25 04:40:38;;;;;;;14.00;8.73;;;-0.20;99.90;;;;;;5012502;28;20036;-79
2023/01/25 04:43:05;;;;;;;15.43;9.48;;;-0.10;99.90;;;;;;4990630;28;20116;-78
2023/01/25 04:45:32;;;;;;;14.52;9.23;;;-0.20;99.90;;;;;;5004608;28;20030;-79
2023/01/25 04:48:02;;;;;;;13.48;8.38;;;-0.10;99.90;;;;;;4990997;28;20120;-79
2023/01/25 04:50:30;;;;;;;13.32;8.15;;;-0.20;99.90;;;;;;5005631;28;20029;-76
2023/01/25 04:52:56;;;;;;;13.55;8.07;;;-0.10;99.90;;;;;;4999248;28;20026;-77
2023/01/25 04:55:23;;;;;;;13.70;8.35;;;-0.10;99.90;;;;;;4985283;28;20029;-77
2023/01/25 04:57:50;;;;;;;13.63;8.25;;;-0.10;99.90;;;;;;5008414;28;20030;-77
2023/01/25 05:00:18;;;;;;;14.82;9.65;;;-0.10;99.90;;;;;;5005005;28;20386;-77
2023/01/25 05:02:44;;;;;;;14.50;8.35;;;-0.10;99.90;;;;;;4990986;28;20025;-76
2023/01/25 05:05:10;;;;;;;14.10;9.38;;;-0.20;99.90;;;;;;4993425;28;20030;-77
2023/01/25 05:07:36;;;;;;;14.32;9.30;;;-0.10;99.90;;;;;;5008097;28;20509;-77
2023/01/25 05:10:03;;;;;;;14.98;8.48;;;-0.10;99.90;;;;;;4985850;28;20558;-77
2023/01/25 05:12:29;;;;;;;13.90;8.38;;;-0.10;99.90;;;;;;5003512;28;20037;-77
2023/01/25 05:14:59;;;;;;;14.85;8.93;;;-0.10;99.90;;;;;;5007946;28;20029;-77
2023/01/25 05:17:25;;;;;;;13.70;9.18;;;-0.20;99.90;;;;;;5017121;28;20485;-77
2023/01/25 05:19:51;;;;;;;16.50;9.30;;;-0.20;99.90;;;;;;4999900;28;20494;-77
2023/01/25 05:22:20;;;;;;;14.52;8.95;;;-0.20;99.90;;;;;;4993571;28;20111;-77
2023/01/25 05:24:49;;;;;;;13.57;8.07;;;-0.20;99.90;;;;;;5008312;28;20095;-77
2023/01/25 05:27:18;;;;;;;14.27;8.82;;;-0.10;99.90;;;;;;5018972;28;20121;-76
2023/01/25 05:29:54;;;;;;;15.07;8.90;;;-0.10;99.90;;;;;;5015153;28;20045;-76
2023/01/25 05:32:25;;;;;;;16.00;9.18;;;-0.20;99.90;;;;;;5007970;28;20021;-77
2023/01/25 05:34:51;;;;;;;14.93;8.82;;;-0.10;99.90;;;;;;5017714;28;20033;-76
2023/01/25 05:37:19;;;;;;;14.70;8.57;;;-0.10;99.90;;;;;;5002918;28;20025;-77
2023/01/25 05:39:48;;;;;;;15.20;9.40;;;-0.20;99.90;;;;;;4993732;28;20486;-76
2023/01/25 05:42:16;;;;;;;14.38;8.77;;;-0.10;99.90;;;;;;5009920;28;20025;-77
2023/01/25 05:44:43;;;;;;;14.48;8.65;;;-0.10;99.90;;;;;;4991039;28;20021;-77
2023/01/25 05:47:13;;;;;;;17.35;10.27;;;-0.20;99.90;;;;;;4990767;28;20071;-77
2023/01/25 05:49:39;;;;;;;15.27;8.50;;;-0.30;99.90;;;;;;4997584;28;20041;-76
2023/01/25 05:52:05;;;;;;;14.95;8.48;;;-0.20;99.90;;;;;;4982031;28;20065;-77
2023/01/25 05:54:31;;;;;;;14.65;8.93;;;-0.20;99.90;;;;;;4991934;28;20418;-77
2023/01/25 05:57:02;;;;;;;13.82;8.57;;;-0.20;99.90;;;;;;5008948;28;20169;-77
2023/01/25 05:59:27;;;;;;;13.23;8.32;;;-0.20;99.90;;;;;;5003552;28;20116;-76
2023/01/25 06:01:54;;;;;;;16.55;9.02;;;-0.20;99.90;;;;;;5002898;28;20109;-76
2023/01/25 06:04:20;;;;;;;26.83;16.67;;;-0.20;99.90;;;;;;5000367;28;20931;-76
2023/01/25 06:06:45;;;;;;;27.25;15.90;;;-0.30;99.90;;;;;;5004238;28;20425;-76
2023/01/25 06:09:12;;;;;;;21.42;12.75;;;-0.30;99.90;;;;;;5005229;28;20037;-76
2023/01/25 06:11:38;;;;;;;20.63;11.85;;;-0.40;99.90;;;;;;4992929;28;20029;-79
2023/01/25 06:14:04;;;;;;;19.88;12.10;;;-0.40;99.90;;;;;;4983403;28;20021;-77
2023/01/25 06:16:30;;;;;;;20.30;12.90;;;-0.30;99.90;;;;;;5006931;28;20025;-77
2023/01/25 06:19:25;;;;;;;23.00;13.50;;;-0.30;99.90;;;;;;4998384;28;20115;-77
2023/01/25 06:22:18;;;;;;;19.60;11.80;;;-0.30;99.90;;;;;;5006854;28;20029;-77
2023/01/25 06:24:44;;;;;;;19.73;10.48;;;-0.40;99.90;;;;;;5016197;28;20328;-77
2023/01/25 06:27:11;;;;;;;18.52;11.05;;;-0.40;99.90;;;;;;5015682;28;20052;-77
2023/01/25 06:29:37;;;;;;;18.25;10.70;;;-0.40;99.90;;;;;;5002938;28;20394;-77
2023/01/25 06:32:03;;;;;;;19.02;10.52;;;-0.30;99.90;;;;;;4991214;28;20026;-77
2023/01/25 06:34:28;;;;;;;17.85;9.93;;;-0.30;99.90;;;;;;5008581;28;20568;-77
2023/01/25 06:36:54;;;;;;;21.70;12.57;;;-0.30;99.90;;;;;;4991588;28;20044;-77
2023/01/25 06:39:20;;;;;;;18.25;9.90;;;-0.40;99.90;;;;;;5007955;28;20034;-77
2023/01/25 06:41:46;;;;;;;18.70;10.65;;;-0.40;99.90;;;;;;5002782;28;20057;-77
2023/01/25 06:44:11;;;;;;;19.40;10.65;;;-0.40;99.90;;;;;;5001379;28;20040;-77
2023/01/25 06:46:37;;;;;;;18.38;10.80;;;-0.40;99.90;;;;;;5014263;28;20022;-77
2023/01/25 06:49:03;;;;;;;18.25;10.25;;;-0.40;99.90;;;;;;5008535;28;20128;-77
2023/01/25 06:51:28;;;;;;;18.70;10.02;;;-0.40;99.90;;;;;;5006619;28;20113;-77
2023/01/25 06:53:54;;;;;;;20.40;10.85;;;-0.40;99.90;;;;;;4996840;28;20030;-77
2023/01/25 06:56:21;;;;;;;17.48;10.18;;;-0.40;99.90;;;;;;5001157;28;20033;-77
2023/01/25 06:58:48;;;;;;;25.05;13.23;;;-0.50;99.90;;;;;;4985705;28;20030;-78
2023/01/25 07:01:20;;;;;;;23.70;12.70;;;-0.50;99.90;;;;;;5000756;28;20042;-77
2023/01/25 07:03:54;;;;;;;20.40;11.35;;;-0.50;99.90;;;;;;5019475;28;20095;-77
2023/01/25 07:06:21;;;;;;;27.45;14.82;;;-0.50;99.90;;;;;;5007345;28;20029;-77
2023/01/25 07:08:47;;;;;;;41.88;23.35;;;-0.60;99.90;;;;;;5015571;28;20026;-76
2023/01/25 07:11:13;;;;;;;33.33;20.17;;;-0.70;99.90;;;;;;4984897;28;20030;-77
2023/01/25 07:13:41;;;;;;;43.25;24.98;;;-0.70;99.90;;;;;;4994396;28;20478;-76
2023/01/25 07:16:10;;;;;;;39.40;22.85;;;-0.70;99.90;;;;;;5005128;28;20025;-77
2023/01/25 07:18:36;;;;;;;43.40;24.20;;;-0.80;99.90;;;;;;4989629;28;20030;-76
2023/01/25 07:21:22;;;;;;;34.45;19.52;;;-0.70;99.90;;;;;;5017267;28;20352;-77
2023/01/25 07:23:51;;;;;;;33.78;19.42;;;-0.70;99.90;;;;;;5007619;28;20028;-76
2023/01/25 07:26:22;;;;;;;44.63;24.50;;;-0.70;99.90;;;;;;5020278;28;20105;-76
2023/01/25 07:28:48;;;;;;;42.58;24.23;;;-0.80;99.90;;;;;;5011627;28;20092;-77
2023/01/25 07:31:15;;;;;;;35.33;19.98;;;-0.80;99.90;;;;;;4995547;28;20025;-76
2023/01/25 07:33:40;;;;;;;31.27;16.70;;;-0.70;99.90;;;;;;4993414;28;20033;-76
2023/01/25 07:36:08;;;;;;;26.98;15.48;;;-0.60;99.90;;;;;;4993704;28;20378;-76
2023/01/25 07:38:35;;;;;;;28.08;15.95;;;-0.60;99.90;;;;;;5003929;28;20050;-77
2023/01/25 07:41:01;;;;;;;26.83;13.88;;;-0.60;99.90;;;;;;4994068;28;20065;-77
2023/01/25 07:43:27;;;;;;;25.58;14.07;;;-0.60;99.90;;;;;;5010065;28;20094;-77
2023/01/25 07:45:58;;;;;;;20.70;11.23;;;-0.60;99.90;;;;;;5006189;28;20463;-77
2023/01/25 07:48:24;;;;;;;24.90;12.85;;;-0.50;99.90;;;;;;5020645;28;20112;-77
2023/01/25 07:51:09;;;;;;;20.35;10.32;;;-0.60;99.90;;;;;;5010379;28;20491;-77
2023/01/25 07:53:34;;;;;;;23.30;11.65;;;-0.50;99.90;;;;;;5020464;28;20026;-77
2023/01/25 07:56:00;;;;;;;23.42;13.70;;;-0.50;99.90;;;;;;4993467;28;20085;-78
2023/01/25 07:58:26;;;;;;;26.00;13.15;;;-0.60;99.90;;;;;;5004248;28;20466;-77
2023/01/25 08:00:52;;;;;;;32.20;18.58;;;-0.60;99.90;;;;;;5005404;28;20398;-77
2023/01/25 08:03:20;;;;;;;40.17;22.00;;;-0.70;99.90;;;;;;5019282;28;20026;-77
2023/01/25 08:05:47;;;;;;;42.38;23.55;;;-0.80;99.90;;;;;;5005448;28;20064;-77
2023/01/25 08:08:13;;;;;;;36.35;20.52;;;-0.90;99.90;;;;;;4999278;28;20034;-77
2023/01/25 08:10:39;;;;;;;38.13;22.75;;;-0.70;99.90;;;;;;5008323;28;20029;-77
2023/01/25 08:13:05;;;;;;;41.42;23.58;;;-0.80;99.90;;;;;;5016857;28;20084;-77
2023/01/25 08:15:31;;;;;;;73.25;36.13;;;-0.80;99.90;;;;;;4988251;28;20466;-77
2023/01/25 08:18:00;;;;;;;70.40;33.17;;;-0.90;99.90;;;;;;5018102;28;20036;-78
2023/01/25 08:20:26;;;;;;;59.03;28.05;;;-0.90;99.90;;;;;;4995349;28;20083;-77
2023/01/25 08:22:52;;;;;;;54.78;26.92;;;-0.90;99.90;;;;;;5008773;28;20041;-77
2023/01/25 08:25:18;;;;;;;51.65;25.25;;;-0.80;99.90;;;;;;4989079;28;20029;-77
2023/01/25 08:27:44;;;;;;;49.88;25.10;;;-0.80;99.90;;;;;;5006154;28;20454;-77
2023/01/25 08:30:11;;;;;;;42.95;21.77;;;-0.90;99.90;;;;;;5001526;28;20814;-77
2023/01/25 08:32:37;;;;;;;38.08;19.77;;;-0.80;99.90;;;;;;5004609;28;20037;-77
2023/01/25 08:35:03;;;;;;;35.35;17.75;;;-0.80;99.90;;;;;;5010316;28;20493;-77
2023/01/25 08:37:29;;;;;;;28.00;14.13;;;-0.70;99.90;;;;;;4993816;28;20532;-77
2023/01/25 08:39:56;;;;;;;26.05;12.95;;;-0.60;99.90;;;;;;5006057;28;20030;-77
2023/01/25 08:42:23;;;;;;;24.85;12.50;;;-0.60;99.90;;;;;;5000496;28;20390;-77
2023/01/25 08:44:48;;;;;;;24.85;12.95;;;-0.60;99.90;;;;;;4986257;28;20776;-77
2023/01/25 08:47:14;;;;;;;22.25;11.18;;;-0.60;99.90;;;;;;4991867;28;20067;-77
2023/01/25 08:49:41;;;;;;;24.05;12.85;;;-0.60;99.90;;;;;;5016946;28;20152;-77
2023/01/25 08:52:06;;;;;;;23.52;12.35;;;-0.50;99.90;;;;;;5018018;28;20148;-77
2023/01/25 08:54:32;;;;;;;26.52;13.95;;;-0.60;99.90;;;;;;5003959;28;20480;-77
2023/01/25 08:56:59;;;;;;;23.60;12.02;;;-0.60;99.90;;;;;;5017190;28;20482;-77
2023/01/25 08:59:25;;;;;;;25.60;13.55;;;-0.60;99.90;;;;;;5018589;28;20029;-77
2023/01/25 09:01:51;;;;;;;22.48;11.25;;;-0.60;99.90;;;;;;4992464;28;20033;-77
2023/01/25 09:04:17;;;;;;;31.98;17.20;;;-0.60;99.90;;;;;;5001679;28;20152;-77
2023/01/25 09:06:42;;;;;;;36.13;19.73;;;-0.70;99.90;;;;;;5017352;28;20164;-77
2023/01/25 09:09:08;;;;;;;32.15;16.33;;;-0.70;99.90;;;;;;5017245;28;20518;-77
2023/01/25 09:11:36;;;;;;;27.83;14.45;;;-0.70;99.90;;;;;;4993335;28;20109;-77
2023/01/25 09:14:02;;;;;;;32.33;16.58;;;-0.70;99.90;;;;;;5016918;28;20021;-77
2023/01/25 09:16:29;;;;;;;29.55;15.45;;;-0.60;99.90;;;;;;5004113;28;20096;-77
2023/01/25 09:19:03;;;;;;;29.65;15.10;;;-0.60;99.90;;;;;;5003425;28;20021;-77
2023/01/25 09:21:29;;;;;;;25.63;13.93;;;-0.50;99.90;;;;;;5019885;28;20025;-77
2023/01/25 09:23:56;;;;;;;34.60;18.70;;;-0.50;99.90;;;;;;5017343;28;20045;-78
2023/01/25 09:26:21;;;;;;;38.70;21.88;;;-0.60;99.90;;;;;;5004309;28;20033;-77
2023/01/25 09:28:49;;;;;;;33.70;18.75;;;-0.60;99.90;;;;;;5008318;28;20052;-77
2023/01/25 09:31:16;;;;;;;44.40;23.27;;;-0.60;99.90;;;;;;5019139;28;20022;-77
2023/01/25 09:34:02;;;;;;;36.40;18.77;;;-0.60;99.90;;;;;;5013432;28;20049;-77
2023/01/25 09:36:28;;;;;;;32.85;16.73;;;-0.50;99.90;;;;;;5008978;28;20033;-77
2023/01/25 09:38:54;;;;;;;27.80;14.70;;;-0.40;99.90;;;;;;5017487;28;20389;-77
2023/01/25 09:41:52;;;;;;;27.17;14.30;;;-0.40;99.90;;;;;;4992538;28;20445;-77
2023/01/25 09:44:32;;;;;;;42.05;21.35;;;-0.40;99.90;;;;;;5005729;28;20036;-77
2023/01/25 09:47:03;;;;;;;41.72;22.00;;;-0.50;99.90;;;;;;5000237;28;20029;-77
2023/01/25 09:50:08;;;;;;;37.75;19.67;;;-0.60;99.90;;;;;;5008794;28;20049;-77
2023/01/25 09:52:49;;;;;;;31.13;16.77;;;-0.40;99.90;;;;;;4986498;28;20037;-77
2023/01/25 09:55:19;;;;;;;29.77;15.18;;;-0.30;99.90;;;;;;5002871;28;20029;-78
2023/01/25 09:57:45;;;;;;;33.97;18.03;;;-0.40;99.90;;;;;;4998057;28;20025;-78
2023/01/25 10:00:27;;;;;;;32.17;16.23;;;-0.40;99.90;;;;;;5002263;28;20292;-77
2023/01/25 10:02:58;;;;;;;29.10;15.18;;;-0.40;99.90;;;;;;5016761;28;20030;-77
2023/01/25 10:05:39;;;;;;;27.85;14.15;;;-0.20;99.90;;;;;;5004794;28;20026;-77
2023/01/25 10:08:19;;;;;;;22.30;12.23;;;-0.30;99.90;;;;;;5017047;28;20551;-77
2023/01/25 10:10:48;;;;;;;24.27;12.73;;;-0.20;99.90;;;;;;5002672;28;20052;-76
2023/01/25 10:13:18;;;;;;;24.90;12.73;;;-0.20;99.90;;;;;;5017537;28;20542;-77
2023/01/25 10:15:54;;;;;;;28.48;14.50;;;-0.20;99.90;;;;;;5002026;28;20060;-77
2023/01/25 10:18:52;;;;;;;31.40;15.73;;;-0.20;99.90;;;;;;5006628;28;20533;-77
2023/01/25 10:21:39;;;;;;;25.80;13.65;;;-0.20;99.90;;;;;;5015179;28;20030;-77
2023/01/25 10:24:18;;;;;;;29.50;16.02;;;-0.20;99.90;;;;;;5014487;28;20048;-77
2023/01/25 10:26:50;;;;;;;31.83;16.13;;;-0.10;99.90;;;;;;5001056;28;20075;-77
2023/01/25 10:29:21;;;;;;;36.25;19.98;;;-0.10;99.90;;;;;;4981588;28;20068;-77
2023/01/25 10:31:52;;;;;;;51.00;27.45;;;-0.20;99.90;;;;;;5016936;28;20018;-77
2023/01/25 10:34:30;;;;;;;60.28;32.88;;;-0.40;99.90;;;;;;5010682;28;20057;-77
2023/01/25 10:37:01;;;;;;;63.03;32.30;;;-0.50;99.90;;;;;;5007798;28;20246;-77
2023/01/25 10:39:28;;;;;;;53.95;29.17;;;-0.50;99.90;;;;;;5008144;28;20030;-76
2023/01/25 10:42:00;;;;;;;57.30;30.35;;;-0.40;99.90;;;;;;4997144;28;20066;-76
2023/01/25 10:44:27;;;;;;;47.45;24.73;;;-0.50;99.90;;;;;;5019290;28;20064;-78
2023/01/25 10:47:12;;;;;;;46.78;24.20;;;-0.40;99.90;;;;;;5004438;28;20037;-77
2023/01/25 10:49:45;;;;;;;49.13;25.42;;;-0.30;99.90;;;;;;4989133;28;20056;-77
2023/01/25 10:52:16;;;;;;;39.20;20.42;;;-0.40;99.90;;;;;;5023354;28;20038;-77
2023/01/25 10:54:42;;;;;;;38.35;19.15;;;-0.20;99.90;;;;;;4993786;28;20060;-77
2023/01/25 10:57:15;;;;;;;34.65;18.25;;;-0.10;99.90;;;;;;5006221;28;20046;-77
2023/01/25 10:59:45;;;;;;;39.40;20.42;;;-0.20;99.90;;;;;;5009535;28;20442;-77
2023/01/25 11:02:29;;;;;;;42.65;22.35;;;-0.30;99.90;;;;;;5004062;28;20112;-77
2023/01/25 11:04:55;;;;;;;44.10;22.92;;;-0.30;99.90;;;;;;5000807;28;20029;-77
2023/01/25 11:07:29;;;;;;;40.13;20.95;;;-0.30;99.90;;;;;;5004911;28;20041;-77
2023/01/25 11:09:55;;;;;;;43.05;20.70;;;-0.10;99.90;;;;;;5000792;28;20044;-77
2023/01/25 11:12:21;;;;;;;40.83;20.30;;;-0.20;99.90;;;;;;5006809;28;20109;-77
2023/01/25 11:14:48;;;;;;;37.95;19.95;;;-0.10;99.90;;;;;;5002138;28;20080;-77
2023/01/25 11:17:25;;;;;;;39.63;19.73;;;-0.10;99.90;;;;;;5005309;28;20037;-77
2023/01/25 11:20:19;;;;;;;50.42;25.58;;;0.00;99.90;;;;;;5004998;28;20033;-77
2023/01/25 11:22:56;;;;;;;57.40;27.80;;;-0.30;99.90;;;;;;5018354;28;20026;-77
2023/01/25 11:25:26;;;;;;;52.97;26.60;;;-0.30;99.90;;;;;;5002285;28;20474;-77
2023/01/25 11:28:19;;;;;;;61.60;30.80;;;-0.30;99.90;;;;;;4995527;28;20516;-76
2023/01/25 11:30:46;;;;;;;72.22;37.13;;;-0.30;99.90;;;;;;5008669;28;20034;-77
2023/01/25 11:33:14;;;;;;;66.80;32.70;;;-0.40;99.90;;;;;;4990675;28;20026;-77
2023/01/25 11:36:13;;;;;;;74.70;36.40;;;-0.40;99.90;;;;;;4986456;28;20037;-77
2023/01/25 11:38:49;;;;;;;71.10;35.10;;;-0.40;99.90;;;;;;5030326;28;20409;-77
2023/01/25 11:41:30;;;;;;;77.07;37.38;;;-0.30;99.90;;;;;;5003952;28;20025;-77
2023/01/25 11:43:56;;;;;;;75.05;36.63;;;-0.40;99.90;;;;;;5017232;28;20454;-76
2023/01/25 11:46:33;;;;;;;60.33;30.77;;;-0.40;99.90;;;;;;5007917;28;20237;-77
2023/01/25 11:49:11;;;;;;;55.13;27.00;;;-0.30;99.90;;;;;;4986359;28;20501;-77
2023/01/25 11:51:54;;;;;;;42.55;21.25;;;-0.30;99.90;;;;;;5001293;28;20034;-77
2023/01/25 11:54:52;;;;;;;40.22;19.48;;;-0.10;99.90;;;;;;4985349;28;20033;-77
2023/01/25 11:57:21;;;;;;;37.72;18.60;;;0.00;99.90;;;;;;4988956;28;20037;-77
2023/01/25 12:00:20;;;;;;;41.20;19.38;;;-0.10;99.90;;;;;;4998735;28;20386;-77
2023/01/25 12:03:07;;;;;;;35.40;18.52;;;-0.10;99.90;;;;;;4988049;28;20025;-78
2023/01/25 12:05:54;;;;;;;55.60;26.98;;;-0.10;99.90;;;;;;5021406;28;20038;-77
2023/01/25 12:08:38;;;;;;;65.38;29.83;;;-0.40;99.90;;;;;;5004106;28;20227;-77
2023/01/25 12:11:31;;;;;;;66.25;32.47;;;-0.40;99.90;;;;;;5012628;28;20025;-76
2023/01/25 12:14:33;;;;;;;80.63;37.72;;;-0.50;99.90;;;;;;5000101;28;20026;-77
2023/01/25 12:17:04;;;;;;;73.30;34.95;;;-0.40;99.90;;;;;;5021276;28;20030;-77
2023/01/25 12:19:58;;;;;;;60.58;29.73;;;-0.40;99.90;;;;;;4991473;28;20043;-77
2023/01/25 12:22:44;;;;;;;58.47;27.92;;;-0.40;99.90;;;;;;5004211;28;20025;-76
2023/01/25 12:25:15;;;;;;;53.28;26.08;;;-0.40;99.90;;;;;;4999923;28;20037;-77
2023/01/25 12:27:59;;;;;;;46.75;21.17;;;-0.30;99.90;;;;;;5016758;28;20394;-77
2023/01/25 12:30:52;;;;;;;43.08;21.27;;;-0.10;99.90;;;;;;4988763;28;20091;-77
2023/01/25 12:33:27;;;;;;;42.95;19.40;;;-0.10;99.90;;;;;;5001071;28;20052;-76
2023/01/25 12:36:05;;;;;;;41.15;19.05;;;-0.10;99.90;;;;;;5015768;28;20035;-77
2023/01/25 12:38:43;;;;;;;38.88;17.85;;;-0.10;99.90;;;;;;5019744;28;20044;-77
2023/01/25 12:41:43;;;;;;;52.67;23.58;;;-0.10;99.90;;;;;;5003190;28;20033;-77
2023/01/25 12:44:20;;;;;;;44.72;19.45;;;0.00;99.90;;;;;;4950488;28;20041;-78
2023/01/25 12:47:04;;;;;;;38.50;18.02;;;0.00;99.90;;;;;;4934814;28;20123;-77
2023/01/25 12:49:36;;;;;;;43.35;20.00;;;0.00;99.90;;;;;;4924859;28;1144181;-77
2023/01/25 12:52:06;;;;;;;42.88;19.83;;;0.00;99.90;;;;;;4951340;28;20094;-77